createdAt,value
2019-05-21T00:01:27.515Z,15.60
2019-05-21T00:03:56.287Z,15.60
2019-05-21T00:06:25.242Z,15.60
2019-05-21T00:08:54.125Z,15.60
2019-05-21T00:11:23.863Z,15.60
2019-05-21T00:13:52.600Z,15.60
2019-05-21T00:16:21.537Z,15.60
2019-05-21T00:18:50.222Z,15.60
2019-05-21T00:21:19.016Z,15.50
2019-05-21T00:23:47.867Z,15.60
2019-05-21T00:26:16.726Z,15.50
2019-05-21T00:29:21.115Z,15.50
2019-05-21T00:32:25.642Z,15.50
2019-05-21T00:35:44.590Z,15.50
2019-05-21T00:38:51.930Z,15.50
2019-05-21T00:41:55.139Z,15.40
2019-05-21T00:44:24.033Z,15.40
2019-05-21T00:46:52.727Z,15.40
2019-05-21T00:49:21.515Z,15.40
2019-05-21T00:51:50.233Z,15.30
2019-05-21T00:54:19.773Z,15.30
2019-05-21T00:56:48.637Z,15.30
2019-05-21T00:59:17.393Z,15.30
2019-05-21T01:01:46.587Z,15.30
2019-05-21T01:04:15.755Z,15.20
2019-05-21T01:06:44.467Z,15.20
2019-05-21T01:09:13.157Z,15.20
2019-05-21T01:11:42.042Z,15.10
2019-05-21T01:14:12.117Z,15.10
2019-05-21T01:16:41.233Z,15.00
2019-05-21T01:19:10.152Z,15.00
2019-05-21T01:21:38.830Z,15.00
2019-05-21T01:24:07.658Z,15.00
2019-05-21T01:26:36.958Z,15.10
2019-05-21T01:29:05.636Z,15.00
2019-05-21T01:31:34.412Z,15.00
2019-05-21T01:34:03.150Z,15.10
2019-05-21T01:36:32.062Z,15.00
2019-05-21T01:39:01.185Z,15.00
2019-05-21T01:41:30.009Z,15.00
2019-05-21T01:43:58.805Z,15.00
2019-05-21T01:46:27.588Z,15.00
2019-05-21T01:48:56.419Z,14.90
2019-05-21T01:51:25.618Z,14.90
2019-05-21T01:53:54.358Z,14.90
2019-05-21T01:56:23.368Z,15.00
2019-05-21T01:58:52.277Z,14.90
2019-05-21T02:01:20.993Z,14.90
2019-05-21T02:03:49.694Z,14.90
2019-05-21T02:06:18.398Z,14.90
2019-05-21T02:08:47.137Z,14.90
2019-05-21T02:11:16.034Z,14.80
2019-05-21T02:13:44.733Z,14.80
2019-05-21T02:16:13.605Z,14.80
2019-05-21T02:18:42.590Z,14.80
2019-05-21T02:21:11.558Z,14.70
2019-05-21T02:23:40.513Z,14.70
2019-05-21T02:26:09.376Z,14.70
2019-05-21T02:28:38.134Z,14.70
2019-05-21T02:31:06.883Z,14.70
2019-05-21T02:33:35.758Z,14.60
2019-05-21T02:36:04.965Z,14.60
2019-05-21T02:38:33.877Z,14.60
2019-05-21T02:41:03.023Z,14.60
2019-05-21T02:43:31.944Z,14.60
2019-05-21T02:46:00.616Z,14.60
2019-05-21T02:48:29.451Z,14.50
2019-05-21T02:50:58.143Z,14.60
2019-05-21T02:53:27.257Z,14.60
2019-05-21T02:55:55.992Z,14.60
2019-05-21T02:58:24.770Z,14.60
2019-05-21T03:01:17.656Z,14.50
2019-05-21T03:03:45.454Z,14.50
2019-05-21T03:06:15.046Z,14.50
2019-05-21T03:08:44.103Z,14.50
2019-05-21T03:11:13.040Z,14.50
2019-05-21T03:13:41.739Z,14.50
2019-05-21T03:16:10.553Z,14.50
2019-05-21T03:18:39.542Z,14.50
2019-05-21T03:21:08.636Z,14.60
2019-05-21T03:23:40.732Z,14.70
2019-05-21T03:26:09.923Z,14.80
2019-05-21T03:28:38.758Z,14.90
2019-05-21T03:31:07.725Z,15.20
2019-05-21T03:33:36.412Z,15.50
2019-05-21T03:36:05.507Z,15.80
2019-05-21T03:38:34.394Z,16.20
2019-05-21T03:41:03.297Z,16.50
2019-05-21T03:43:32.371Z,16.80
2019-05-21T03:46:01.534Z,17.20
2019-05-21T03:48:30.498Z,17.40
2019-05-21T03:50:59.246Z,17.60
2019-05-21T03:53:32.205Z,17.80
2019-05-21T03:56:01.022Z,17.80
2019-05-21T03:58:29.987Z,18.00
2019-05-21T04:00:58.754Z,18.10
2019-05-21T04:03:27.423Z,18.50
2019-05-21T04:05:56.143Z,18.50
2019-05-21T04:08:24.908Z,18.40
2019-05-21T04:10:53.665Z,18.90
2019-05-21T04:13:22.851Z,19.40
2019-05-21T04:16:19.938Z,19.80
2019-05-21T04:18:55.863Z,20.40
2019-05-21T04:21:24.636Z,20.30
2019-05-21T04:23:53.521Z,20.00
2019-05-21T04:26:22.331Z,20.10
2019-05-21T04:28:51.041Z,20.80
2019-05-21T04:31:19.888Z,20.80
2019-05-21T04:33:48.591Z,21.10
2019-05-21T04:36:17.285Z,21.40
2019-05-21T04:38:46.086Z,20.70
2019-05-21T04:41:14.993Z,20.50
2019-05-21T04:43:43.778Z,20.50
2019-05-21T04:46:12.751Z,20.70
2019-05-21T04:48:42.493Z,21.20
2019-05-21T04:51:13.694Z,21.80
2019-05-21T04:53:42.254Z,22.00
2019-05-21T04:56:10.960Z,21.90
2019-05-21T04:58:40.137Z,21.70
2019-05-21T05:01:09.448Z,21.70
2019-05-21T05:03:38.378Z,21.90
2019-05-21T05:06:07.427Z,22.40
2019-05-21T05:08:37.525Z,23.40
2019-05-21T05:11:06.293Z,23.70
2019-05-21T05:13:35.006Z,23.20
2019-05-21T05:16:04.495Z,23.60
2019-05-21T05:18:34.083Z,23.00
2019-05-21T05:21:02.860Z,22.60
2019-05-21T05:23:31.864Z,22.40
2019-05-21T05:26:00.593Z,22.30
2019-05-21T05:28:29.272Z,22.40
2019-05-21T05:30:58.250Z,22.70
2019-05-21T05:33:27.118Z,23.00
2019-05-21T05:35:55.828Z,24.10
2019-05-21T05:38:24.507Z,25.00
2019-05-21T05:40:53.470Z,25.90
2019-05-21T05:43:22.205Z,25.20
2019-05-21T05:45:51.031Z,24.60
2019-05-21T05:48:20.090Z,24.30
2019-05-21T05:50:50.761Z,24.00
2019-05-21T05:53:19.793Z,24.10
2019-05-21T05:55:48.712Z,23.80
2019-05-21T05:58:18.152Z,24.30
2019-05-21T06:00:47.058Z,24.80
2019-05-21T06:03:16.419Z,25.80
2019-05-21T06:05:45.289Z,25.00
2019-05-21T06:08:14.538Z,25.90
2019-05-21T06:10:43.493Z,27.20
2019-05-21T06:13:12.250Z,27.40
2019-05-21T06:15:44.191Z,28.20
2019-05-21T06:18:14.389Z,28.50
2019-05-21T06:20:43.058Z,29.40
2019-05-21T06:23:11.744Z,29.60
2019-05-21T06:25:40.422Z,28.10
2019-05-21T06:28:09.194Z,27.00
2019-05-21T06:30:38.020Z,26.40
2019-05-21T06:33:06.714Z,26.80
2019-05-21T06:35:35.753Z,27.30
2019-05-21T06:38:17.118Z,28.50
2019-05-21T06:40:38.372Z,29.60
2019-05-21T06:43:05.854Z,29.20
2019-05-21T06:45:34.870Z,30.20
2019-05-21T06:48:03.576Z,31.60
2019-05-21T06:50:32.339Z,32.30
2019-05-21T06:53:02.269Z,32.00
2019-05-21T06:55:30.992Z,32.30
2019-05-21T06:58:00.007Z,31.80
2019-05-21T07:00:28.872Z,32.40
2019-05-21T07:02:57.671Z,32.90
2019-05-21T07:05:26.367Z,33.70
2019-05-21T07:07:55.374Z,34.30
2019-05-21T07:10:24.502Z,34.60
2019-05-21T07:12:53.190Z,34.90
2019-05-21T07:15:25.227Z,35.50
2019-05-21T07:17:53.994Z,35.40
2019-05-21T07:20:22.854Z,35.60
2019-05-21T07:22:51.778Z,35.90
2019-05-21T07:25:20.658Z,36.00
2019-05-21T07:27:49.688Z,35.60
2019-05-21T07:30:19.910Z,36.20
2019-05-21T07:32:49.126Z,36.60
2019-05-21T07:35:17.843Z,36.40
2019-05-21T07:37:49.592Z,35.70
2019-05-21T07:40:18.480Z,34.30
2019-05-21T07:42:47.258Z,33.60
2019-05-21T07:45:16.301Z,33.60
2019-05-21T07:47:45.084Z,32.10
2019-05-21T07:50:14.221Z,29.90
2019-05-21T07:52:43.106Z,29.20
2019-05-21T07:55:12.210Z,30.70
2019-05-21T07:57:40.921Z,32.20
2019-05-21T08:00:11.309Z,33.80
2019-05-21T08:02:40.015Z,35.50
2019-05-21T08:05:09.260Z,35.50
2019-05-21T08:07:38.112Z,35.80
2019-05-21T08:10:08.805Z,36.50
2019-05-21T08:12:39.642Z,36.60
2019-05-21T08:15:09.410Z,36.80
2019-05-21T08:17:38.192Z,36.10
2019-05-21T08:20:10.218Z,36.10
2019-05-21T08:22:39.295Z,35.40
2019-05-21T08:25:08.212Z,35.50
2019-05-21T08:27:37.024Z,35.90
2019-05-21T08:30:06.523Z,36.30
2019-05-21T08:32:35.910Z,37.10
2019-05-21T08:35:05.266Z,38.00
2019-05-21T08:37:33.996Z,38.30
2019-05-21T08:40:02.770Z,38.90
2019-05-21T08:42:31.493Z,38.70
2019-05-21T08:45:00.354Z,38.50
2019-05-21T08:47:29.341Z,38.80
2019-05-21T08:49:58.579Z,38.80
2019-05-21T08:52:27.771Z,38.40
2019-05-21T08:54:56.799Z,38.60
2019-05-21T08:57:28.064Z,38.80
2019-05-21T08:59:56.815Z,39.10
2019-05-21T09:02:26.168Z,39.90
2019-05-21T09:04:55.041Z,40.00
2019-05-21T09:07:24.003Z,39.00
2019-05-21T09:09:52.714Z,39.00
2019-05-21T09:12:21.466Z,39.40
2019-05-21T09:14:50.367Z,39.20
2019-05-21T09:17:19.045Z,37.60
2019-05-21T09:19:47.810Z,37.50
2019-05-21T09:22:16.627Z,36.70
2019-05-21T09:24:45.365Z,36.20
2019-05-21T09:27:14.159Z,35.20
2019-05-21T09:29:42.990Z,34.40
2019-05-21T09:32:11.904Z,34.50
2019-05-21T09:34:48.892Z,35.20
2019-05-21T09:37:19.742Z,36.20
2019-05-21T09:39:42.126Z,34.40
2019-05-21T09:42:10.889Z,32.60
2019-05-21T09:44:39.811Z,32.90
2019-05-21T09:47:09.027Z,33.50
2019-05-21T09:49:37.741Z,31.60
2019-05-21T09:52:06.782Z,30.50
2019-05-21T09:54:38.721Z,31.10
2019-05-21T09:57:09.890Z,31.90
2019-05-21T09:59:46.710Z,32.30
2019-05-21T10:02:18.978Z,32.90
2019-05-21T10:04:47.656Z,33.20
2019-05-21T10:07:16.449Z,31.90
2019-05-21T10:09:45.478Z,30.70
2019-05-21T10:12:14.299Z,28.90
2019-05-21T10:14:43.264Z,28.00
2019-05-21T10:17:13.663Z,28.00
2019-05-21T10:19:42.407Z,28.40
2019-05-21T10:22:11.399Z,28.70
2019-05-21T10:24:40.909Z,28.30
2019-05-21T10:27:09.793Z,27.40
2019-05-21T10:29:38.840Z,27.20
2019-05-21T10:32:07.670Z,27.40
2019-05-21T10:34:36.366Z,27.70
2019-05-21T10:37:05.389Z,27.80
2019-05-21T10:39:34.058Z,28.10
2019-05-21T10:42:03.154Z,28.20
2019-05-21T10:44:31.963Z,28.40
2019-05-21T10:47:00.715Z,28.30
2019-05-21T10:49:29.476Z,28.20
2019-05-21T10:51:58.484Z,28.10
2019-05-21T10:54:27.235Z,27.90
2019-05-21T10:56:56.272Z,28.00
2019-05-21T10:59:25.379Z,28.30
2019-05-21T11:02:12.082Z,28.50
2019-05-21T11:05:03.077Z,28.40
2019-05-21T11:07:31.912Z,28.30
2019-05-21T11:10:00.673Z,28.50
2019-05-21T11:12:29.517Z,28.60
2019-05-21T11:14:58.211Z,28.80
2019-05-21T11:17:26.914Z,28.90
2019-05-21T11:19:55.614Z,28.60
2019-05-21T11:22:24.308Z,28.30
2019-05-21T11:24:53.198Z,28.10
2019-05-21T11:27:22.046Z,27.70
2019-05-21T11:29:50.880Z,27.70
2019-05-21T11:32:19.655Z,27.90
2019-05-21T11:34:50.255Z,27.90
2019-05-21T11:37:18.976Z,27.60
2019-05-21T11:39:47.747Z,27.70
2019-05-21T11:42:16.560Z,27.80
2019-05-21T11:44:45.590Z,28.00
2019-05-21T11:47:14.525Z,28.10
2019-05-21T11:49:43.381Z,28.00
2019-05-21T11:52:12.045Z,27.90
2019-05-21T11:54:40.783Z,27.80
2019-05-21T11:57:09.471Z,27.80
2019-05-21T11:59:38.297Z,27.60
2019-05-21T12:02:08.910Z,27.60
2019-05-21T12:04:38.302Z,27.40
2019-05-21T12:07:07.052Z,27.30
2019-05-21T12:09:36.005Z,27.30
2019-05-21T12:12:04.829Z,27.20
2019-05-21T12:14:33.516Z,27.30
2019-05-21T12:17:02.170Z,27.30
2019-05-21T12:19:31.211Z,27.40
2019-05-21T12:21:59.930Z,27.50
2019-05-21T12:24:28.637Z,27.40
2019-05-21T12:26:57.920Z,27.40
2019-05-21T12:29:26.767Z,27.30
2019-05-21T12:31:55.871Z,27.50
2019-05-21T12:34:24.735Z,27.70
2019-05-21T12:36:53.415Z,27.60
2019-05-21T12:39:22.060Z,27.50
2019-05-21T12:41:50.794Z,27.30
2019-05-21T12:44:19.468Z,27.30
2019-05-21T12:46:48.262Z,27.10
2019-05-21T12:49:17.160Z,27.00
2019-05-21T12:51:46.062Z,27.10
2019-05-21T12:54:14.773Z,27.00
2019-05-21T12:56:44.040Z,27.00
2019-05-21T12:59:12.720Z,27.00
2019-05-21T13:01:41.474Z,27.00
2019-05-21T13:04:10.829Z,26.90
2019-05-21T13:06:39.814Z,26.90
2019-05-21T13:09:08.905Z,26.70
2019-05-21T13:11:38.372Z,26.50
2019-05-21T13:14:07.418Z,26.50
2019-05-21T13:16:36.284Z,26.60
2019-05-21T13:19:05.516Z,26.60
2019-05-21T13:21:34.318Z,26.50
2019-05-21T13:24:03.474Z,26.60
2019-05-21T13:26:32.272Z,26.70
2019-05-21T13:29:01.257Z,26.30
2019-05-21T13:31:29.983Z,25.90
2019-05-21T13:33:58.826Z,25.90
2019-05-21T13:36:27.586Z,26.00
2019-05-21T13:38:56.591Z,26.30
2019-05-21T13:41:25.914Z,26.70
2019-05-21T13:43:54.703Z,27.00
2019-05-21T13:46:23.582Z,27.20
2019-05-21T13:48:52.614Z,27.40
2019-05-21T13:51:21.559Z,27.70
2019-05-21T13:53:50.490Z,27.90
2019-05-21T13:56:19.209Z,28.00
2019-05-21T13:58:48.269Z,28.00
2019-05-21T14:01:18.250Z,27.90
2019-05-21T14:03:47.253Z,28.10
2019-05-21T14:06:15.940Z,28.00
2019-05-21T14:08:45.116Z,28.00
2019-05-21T14:11:14.278Z,28.20
2019-05-21T14:13:43.194Z,28.30
2019-05-21T14:16:11.969Z,28.30
2019-05-21T14:18:40.719Z,27.90
2019-05-21T14:21:10.185Z,27.80
2019-05-21T14:23:38.923Z,27.90
2019-05-21T14:26:08.125Z,27.90
2019-05-21T14:28:37.080Z,28.00
2019-05-21T14:31:05.866Z,27.90
2019-05-21T14:33:34.704Z,27.70
2019-05-21T14:36:03.760Z,27.40
2019-05-21T14:38:33.060Z,27.20
2019-05-21T14:44:24.644Z,26.80
2019-05-21T14:46:54.562Z,26.50
2019-05-21T14:49:24.066Z,26.10
2019-05-21T14:51:53.206Z,25.50
2019-05-21T14:54:26.677Z,25.20
2019-05-21T14:56:53.200Z,25.00
2019-05-21T14:59:23.065Z,24.80
2019-05-21T15:01:51.788Z,24.70
2019-05-21T15:04:20.816Z,24.70
2019-05-21T15:06:51.385Z,24.70
2019-05-21T15:09:20.317Z,24.60
2019-05-21T15:11:50.043Z,24.50
2019-05-21T15:14:18.826Z,24.40
2019-05-21T15:16:47.637Z,24.30
2019-05-21T15:19:16.875Z,24.20
2019-05-21T15:21:49.984Z,24.20
2019-05-21T15:24:18.728Z,24.10
2019-05-21T15:26:47.481Z,24.10
2019-05-21T15:29:16.206Z,24.10
2019-05-21T15:31:45.196Z,24.00
2019-05-21T15:34:13.988Z,24.00
2019-05-21T15:36:43.006Z,24.00
2019-05-21T15:39:11.951Z,24.00
2019-05-21T15:41:40.609Z,24.00
2019-05-21T15:44:09.494Z,24.00
2019-05-21T15:46:47.833Z,24.10
2019-05-21T15:49:08.998Z,24.10
2019-05-21T15:51:37.742Z,24.10
2019-05-21T15:54:06.656Z,24.10
2019-05-21T15:56:35.336Z,24.10
2019-05-21T15:59:04.888Z,24.10
2019-05-21T16:01:33.674Z,23.80
2019-05-21T16:04:02.360Z,23.60
2019-05-21T16:06:31.131Z,23.50
2019-05-21T16:09:00.207Z,23.40
2019-05-21T16:11:29.520Z,23.40
2019-05-21T16:13:58.584Z,23.20
2019-05-21T16:16:27.350Z,23.20
2019-05-21T16:18:56.033Z,23.00
2019-05-21T16:21:25.070Z,23.00
2019-05-21T16:23:53.770Z,22.90
2019-05-21T16:26:23.507Z,22.80
2019-05-21T16:28:52.331Z,22.70
2019-05-21T16:31:21.541Z,22.70
2019-05-21T16:33:50.241Z,22.70
2019-05-21T16:36:19.374Z,22.70
2019-05-21T16:38:48.147Z,22.70
2019-05-21T16:41:16.828Z,22.80
2019-05-21T16:43:45.531Z,22.80
2019-05-21T16:46:14.488Z,22.70
2019-05-21T16:48:43.150Z,22.70
2019-05-21T16:51:12.068Z,22.70
2019-05-21T16:53:41.334Z,22.80
2019-05-21T16:56:24.933Z,22.80
2019-05-21T16:58:45.356Z,22.90
2019-05-21T17:01:15.577Z,23.00
2019-05-21T17:03:58.841Z,23.00
2019-05-21T17:06:15.190Z,23.00
2019-05-21T17:08:44.053Z,23.00
2019-05-21T17:11:13.289Z,23.00
2019-05-21T17:13:42.299Z,23.00
2019-05-21T17:16:12.183Z,23.00
2019-05-21T17:18:40.993Z,22.90
2019-05-21T17:21:09.716Z,22.80
2019-05-21T17:23:38.422Z,22.80
2019-05-21T17:26:07.214Z,22.80
2019-05-21T17:28:36.034Z,22.80
2019-05-21T17:31:04.832Z,22.80
2019-05-21T17:33:33.636Z,22.80
2019-05-21T17:36:02.423Z,22.80
2019-05-21T17:38:31.409Z,22.80
2019-05-21T17:41:00.312Z,22.90
2019-05-21T17:43:29.172Z,22.80
2019-05-21T17:45:58.202Z,22.80
2019-05-21T17:48:27.115Z,22.80
2019-05-21T17:50:56.039Z,22.80
2019-05-21T17:53:24.771Z,22.80
2019-05-21T17:55:53.496Z,22.70
2019-05-21T17:58:22.318Z,22.70
2019-05-21T18:00:59.214Z,22.70
2019-05-21T18:03:28.133Z,22.70
2019-05-21T18:05:58.259Z,22.60
2019-05-21T18:08:27.276Z,22.50
2019-05-21T18:10:56.321Z,22.50
2019-05-21T18:13:25.781Z,22.40
2019-05-21T18:15:54.998Z,22.40
2019-05-21T18:18:25.173Z,22.40
2019-05-21T18:20:55.090Z,22.30
2019-05-21T18:23:23.999Z,22.30
2019-05-21T18:25:52.928Z,22.30
2019-05-21T18:28:21.732Z,22.20
2019-05-21T18:30:50.482Z,22.10
2019-05-21T18:33:19.293Z,22.10
2019-05-21T18:35:48.029Z,22.00
2019-05-21T18:38:16.781Z,22.00
2019-05-21T18:40:45.731Z,21.90
2019-05-21T18:43:14.666Z,21.80
2019-05-21T18:45:43.341Z,21.70
2019-05-21T18:48:12.296Z,21.60
2019-05-21T18:50:40.962Z,21.50
2019-05-21T18:53:09.916Z,21.50
2019-05-21T18:55:39.007Z,21.40
2019-05-21T18:58:08.025Z,21.40
2019-05-21T19:00:37.207Z,21.30
2019-05-21T19:03:06.383Z,21.30
2019-05-21T19:05:35.061Z,21.30
2019-05-21T19:08:03.799Z,21.20
2019-05-21T19:10:32.576Z,21.20
2019-05-21T19:13:01.701Z,21.10
2019-05-21T19:15:30.483Z,21.10
2019-05-21T19:17:59.191Z,21.00
2019-05-21T19:20:28.259Z,21.00
2019-05-21T19:22:56.918Z,20.90
2019-05-21T19:25:25.790Z,20.90
2019-05-21T19:27:54.481Z,20.90
2019-05-21T19:30:23.414Z,20.80
2019-05-21T19:32:52.176Z,20.80
2019-05-21T19:35:21.020Z,20.80
2019-05-21T19:37:49.918Z,20.80
2019-05-21T19:40:19.014Z,20.80
2019-05-21T19:42:54.865Z,20.70
2019-05-21T19:45:19.160Z,20.70
2019-05-21T19:47:48.026Z,20.70
2019-05-21T19:50:17.594Z,20.70
2019-05-21T19:52:46.427Z,20.60
2019-05-21T19:55:15.674Z,20.60
2019-05-21T19:57:44.594Z,20.60
2019-05-21T20:00:15.020Z,20.60
2019-05-21T20:02:43.827Z,20.50
2019-05-21T20:05:12.604Z,20.50
2019-05-21T20:07:41.427Z,20.50
2019-05-21T20:10:11.243Z,20.50
2019-05-21T20:12:40.280Z,20.40
2019-05-21T20:15:09.410Z,20.40
2019-05-21T20:17:41.035Z,20.40
2019-05-21T20:20:11.984Z,20.30
2019-05-21T20:22:42.531Z,20.30
2019-05-21T20:25:11.961Z,20.20
2019-05-21T20:27:41.200Z,20.10
2019-05-21T20:30:13.605Z,20.10
2019-05-21T20:32:43.915Z,20.00
2019-05-21T20:35:15.425Z,19.90
2019-05-21T20:37:44.963Z,19.90
2019-05-21T20:40:14.960Z,19.90
2019-05-21T20:42:44.619Z,19.90
2019-05-21T20:45:15.696Z,19.80
2019-05-21T20:47:45.131Z,19.80
2019-05-21T20:50:16.737Z,19.80
2019-05-21T20:52:45.631Z,19.80
2019-05-21T20:55:16.869Z,19.70
2019-05-21T20:57:46.187Z,19.60
2019-05-21T21:00:20.153Z,19.50
2019-05-21T21:02:49.270Z,19.40
2019-05-21T21:05:18.214Z,19.30
2019-05-21T21:07:47.065Z,19.30
2019-05-21T21:10:16.310Z,19.20
2019-05-21T21:12:45.336Z,19.20
2019-05-21T21:15:15.275Z,19.10
2019-05-21T21:17:44.673Z,19.00
2019-05-21T21:20:13.828Z,19.00
2019-05-21T21:22:42.626Z,18.90
2019-05-21T21:25:12.544Z,18.80
2019-05-21T21:27:41.782Z,18.80
2019-05-21T21:30:11.272Z,18.80
2019-05-21T21:32:40.329Z,18.70
2019-05-21T21:35:10.726Z,18.70
2019-05-21T21:37:39.659Z,18.60
2019-05-21T21:40:11.866Z,18.50
2019-05-21T21:42:41.176Z,18.50
2019-05-21T21:45:11.253Z,18.40
2019-05-21T21:47:41.341Z,18.40
2019-05-21T21:50:11.468Z,18.40
2019-05-21T21:52:41.551Z,18.40
2019-05-21T21:55:10.812Z,18.40
2019-05-21T21:57:39.673Z,18.30
2019-05-21T22:00:35.759Z,18.40
2019-05-21T22:03:07.849Z,18.40
2019-05-21T22:05:37.638Z,18.40
2019-05-21T22:08:06.811Z,18.40
2019-05-21T22:10:35.646Z,18.40
2019-05-21T22:13:04.811Z,18.40
2019-05-21T22:15:33.949Z,18.40
2019-05-21T22:18:03.696Z,18.50
2019-05-21T22:20:33.223Z,18.50
2019-05-21T22:23:02.193Z,18.40
2019-05-21T22:25:31.342Z,18.50
2019-05-21T22:28:00.721Z,18.40
2019-05-21T22:30:29.657Z,18.40
2019-05-21T22:32:58.886Z,18.40
2019-05-21T22:35:27.606Z,18.40
2019-05-21T22:37:56.551Z,18.40
2019-05-21T22:40:25.402Z,18.40
2019-05-21T22:42:54.451Z,18.40
2019-05-21T22:45:23.614Z,18.40
2019-05-21T22:47:52.426Z,18.40
2019-05-21T22:50:21.351Z,18.40
2019-05-21T22:52:50.368Z,18.30
2019-05-21T22:55:19.108Z,18.20
2019-05-21T22:57:47.835Z,18.20
2019-05-21T23:00:16.939Z,18.20
2019-05-21T23:02:45.755Z,18.20
2019-05-21T23:05:17.047Z,18.20
2019-05-21T23:07:46.607Z,18.20
2019-05-21T23:10:16.097Z,18.10
2019-05-21T23:12:45.103Z,18.10
2019-05-21T23:15:24.359Z,18.00
2019-05-21T23:17:44.921Z,18.00
2019-05-21T23:20:13.987Z,18.00
2019-05-21T23:22:45.103Z,17.90
2019-05-21T23:25:14.054Z,17.90
2019-05-21T23:27:43.394Z,18.00
2019-05-21T23:30:14.798Z,18.00
2019-05-21T23:32:44.571Z,17.90
2019-05-21T23:35:13.852Z,17.90
2019-05-21T23:37:44.828Z,17.90
2019-05-21T23:40:15.640Z,17.90
2019-05-21T23:42:44.636Z,17.80
2019-05-21T23:45:15.450Z,17.90
2019-05-21T23:47:44.289Z,17.90
2019-05-21T23:50:15.192Z,17.80
2019-05-21T23:52:44.311Z,17.80
2019-05-21T23:55:14.811Z,17.90
2019-05-21T23:57:43.908Z,17.80
